sensor_id;sensor_type;location;lat;lon;timestamp;pressure;altitude;pressure_sealevel;temperature;humidity
41636;BME280;27623;51.966;4.602;2023-03-22T00:00:26;64291.31;;;9.96;100.00
41636;BME280;27623;51.966;4.602;2023-03-22T00:02:54;64300.94;;;10.03;100.00
41636;BME280;27623;51.966;4.602;2023-03-22T00:05:19;64271.31;;;9.87;100.00
41636;BME280;27623;51.966;4.602;2023-03-22T00:07:45;64305.13;;;9.97;100.00
41636;BME280;27623;51.966;4.602;2023-03-22T00:10:14;64289.47;;;9.99;100.00
41636;BME280;27623;51.966;4.602;2023-03-22T00:12:40;64321.28;;;10.10;100.00
41636;BME280;27623;51.966;4.602;2023-03-22T00:15:05;64249.69;;;9.84;100.00
41636;BME280;27623;51.966;4.602;2023-03-22T00:17:31;64290.75;;;9.89;100.00
41636;BME280;27623;51.966;4.602;2023-03-22T00:19:57;64284.59;;;9.88;100.00
41636;BME280;27623;51.966;4.602;2023-03-22T00:22:23;64290.22;;;9.88;100.00
41636;BME280;27623;51.966;4.602;2023-03-22T00:24:51;64278.41;;;9.94;100.00
41636;BME280;27623;51.966;4.602;2023-03-22T00:27:16;64270.22;;;9.86;100.00
41636;BME280;27623;51.966;4.602;2023-03-22T00:29:42;64284.22;;;9.90;100.00
41636;BME280;27623;51.966;4.602;2023-03-22T00:32:07;64290.03;;;9.86;100.00
41636;BME280;27623;51.966;4.602;2023-03-22T00:34:32;64279.50;;;9.81;100.00
41636;BME280;27623;51.966;4.602;2023-03-22T00:36:58;64257.69;;;9.82;100.00
41636;BME280;27623;51.966;4.602;2023-03-22T00:39:23;64280.59;;;9.82;100.00
41636;BME280;27623;51.966;4.602;2023-03-22T00:41:49;64241.72;;;9.72;100.00
41636;BME280;27623;51.966;4.602;2023-03-22T00:44:15;64258.06;;;9.73;100.00
41636;BME280;27623;51.966;4.602;2023-03-22T00:46:41;64258.44;;;9.71;100.00
41636;BME280;27623;51.966;4.602;2023-03-22T00:49:06;64256.97;;;9.64;100.00
41636;BME280;27623;51.966;4.602;2023-03-22T00:51:31;64251.34;;;9.71;100.00
41636;BME280;27623;51.966;4.602;2023-03-22T00:53:57;64264.25;;;9.74;100.00
41636;BME280;27623;51.966;4.602;2023-03-22T00:56:22;64268.03;;;9.77;100.00
41636;BME280;27623;51.966;4.602;2023-03-22T00:58:49;64256.06;;;9.73;100.00
41636;BME280;27623;51.966;4.602;2023-03-22T01:01:15;64252.97;;;9.65;100.00
41636;BME280;27623;51.966;4.602;2023-03-22T01:03:42;64263.88;;;9.69;100.00
41636;BME280;27623;51.966;4.602;2023-03-22T01:06:10;64260.78;;;9.82;100.00
41636;BME280;27623;51.966;4.602;2023-03-22T01:08:35;64248.97;;;9.81;100.00
41636;BME280;27623;51.966;4.602;2023-03-22T01:11:04;64237.91;;;9.75;100.00
41636;BME280;27623;51.966;4.602;2023-03-22T01:13:30;64231.34;;;9.76;100.00
41636;BME280;27623;51.966;4.602;2023-03-22T01:15:55;64265.84;;;9.82;100.00
41636;BME280;27623;51.966;4.602;2023-03-22T01:18:21;64260.03;;;9.86;100.00
41636;BME280;27623;51.966;4.602;2023-03-22T01:20:46;64302.59;;;9.90;100.00
41636;BME280;27623;51.966;4.602;2023-03-22T01:23:12;64259.69;;;9.88;100.00
41636;BME280;27623;51.966;4.602;2023-03-22T01:25:37;64255.50;;;9.87;100.00
41636;BME280;27623;51.966;4.602;2023-03-22T01:28:03;64271.69;;;9.92;100.00
41636;BME280;27623;51.966;4.602;2023-03-22T01:30:30;64278.75;;;9.99;100.00
41636;BME280;27623;51.966;4.602;2023-03-22T01:32:56;64265.69;;;9.87;100.00
41636;BME280;27623;51.966;4.602;2023-03-22T01:35:21;64295.50;;;9.84;100.00
41636;BME280;27623;51.966;4.602;2023-03-22T01:37:47;64290.59;;;9.86;100.00
41636;BME280;27623;51.966;4.602;2023-03-22T01:40:13;64274.78;;;9.93;100.00
41636;BME280;27623;51.966;4.602;2023-03-22T01:42:39;64283.69;;;9.96;100.00
41636;BME280;27623;51.966;4.602;2023-03-22T01:47:53;64240.81;;;9.73;100.00
41636;BME280;27623;51.966;4.602;2023-03-22T01:50:20;64247.31;;;9.79;100.00
41636;BME280;27623;51.966;4.602;2023-03-22T01:52:48;64270.41;;;9.96;100.00
41636;BME280;27623;51.966;4.602;2023-03-22T01:55:14;64308.75;;;9.91;100.00
41636;BME280;27623;51.966;4.602;2023-03-22T01:57:43;64269.84;;;9.88;100.00
41636;BME280;27623;51.966;4.602;2023-03-22T02:00:10;64292.41;;;9.90;100.00
41636;BME280;27623;51.966;4.602;2023-03-22T02:02:40;64263.84;;;9.90;100.00
41636;BME280;27623;51.966;4.602;2023-03-22T02:05:06;64276.41;;;9.94;100.00
41636;BME280;27623;51.966;4.602;2023-03-22T02:07:32;64257.09;;;10.03;100.00
41636;BME280;27623;51.966;4.602;2023-03-22T02:09:57;64302.38;;;10.02;100.00
41636;BME280;27623;51.966;4.602;2023-03-22T02:15:07;64241.84;;;9.95;100.00
41636;BME280;27623;51.966;4.602;2023-03-22T02:48:32;64293.28;;;10.03;100.00
41636;BME280;27623;51.966;4.602;2023-03-22T02:51:24;64280.19;;;9.98;100.00
41636;BME280;27623;51.966;4.602;2023-03-22T02:54:00;64289.84;;;10.05;100.00
41636;BME280;27623;51.966;4.602;2023-03-22T02:56:32;64299.66;;;10.07;100.00
41636;BME280;27623;51.966;4.602;2023-03-22T02:59:02;64292.00;;;10.07;100.00
41636;BME280;27623;51.966;4.602;2023-03-22T03:01:36;64303.09;;;10.12;100.00
41636;BME280;27623;51.966;4.602;2023-03-22T03:04:09;64312.56;;;10.16;100.00
41636;BME280;27623;51.966;4.602;2023-03-22T03:06:39;64264.56;;;10.07;100.00
41636;BME280;27623;51.966;4.602;2023-03-22T03:09:15;64306.19;;;10.06;100.00
41636;BME280;27623;51.966;4.602;2023-03-22T03:11:46;64273.28;;;10.08;100.00
41636;BME280;27623;51.966;4.602;2023-03-22T03:14:21;64333.13;;;10.12;100.00
41636;BME280;27623;51.966;4.602;2023-03-22T03:16:52;64293.84;;;10.11;100.00
41636;BME280;27623;51.966;4.602;2023-03-22T03:19:40;64328.03;;;10.19;100.00
41636;BME280;27623;51.966;4.602;2023-03-22T03:25:04;64297.84;;;10.10;100.00
41636;BME280;27623;51.966;4.602;2023-03-22T03:27:39;64310.19;;;10.19;100.00
41636;BME280;27623;51.966;4.602;2023-03-22T03:30:23;64338.03;;;10.16;100.00
41636;BME280;27623;51.966;4.602;2023-03-22T03:32:57;64326.38;;;10.24;100.00
41636;BME280;27623;51.966;4.602;2023-03-22T03:35:28;64335.28;;;10.28;100.00
41636;BME280;27623;51.966;4.602;2023-03-22T03:38:04;64328.56;;;10.33;100.00
41636;BME280;27623;51.966;4.602;2023-03-22T03:40:36;64336.19;;;10.33;100.00
41636;BME280;27623;51.966;4.602;2023-03-22T03:43:05;64321.84;;;10.32;100.00
41636;BME280;27623;51.966;4.602;2023-03-22T03:45:32;64333.66;;;10.33;100.00
41636;BME280;27623;51.966;4.602;2023-03-22T03:48:05;64342.56;;;10.37;100.00
41636;BME280;27623;51.966;4.602;2023-03-22T03:50:32;64313.47;;;10.36;100.00
41636;BME280;27623;51.966;4.602;2023-03-22T03:52:57;64330.16;;;10.49;100.00
41636;BME280;27623;51.966;4.602;2023-03-22T03:55:23;64321.81;;;10.39;100.00
41636;BME280;27623;51.966;4.602;2023-03-22T03:57:50;64330.75;;;10.28;100.00
41636;BME280;27623;51.966;4.602;2023-03-22T04:00:16;64327.66;;;10.35;100.00
41636;BME280;27623;51.966;4.602;2023-03-22T04:02:42;64327.28;;;10.37;100.00
41636;BME280;27623;51.966;4.602;2023-03-22T04:05:10;64346.22;;;10.38;100.00
41636;BME280;27623;51.966;4.602;2023-03-22T04:07:36;64329.28;;;10.29;100.00
41636;BME280;27623;51.966;4.602;2023-03-22T04:10:02;64324.38;;;10.39;100.00
41636;BME280;27623;51.966;4.602;2023-03-22T04:12:28;64332.19;;;10.27;100.00
41636;BME280;27623;51.966;4.602;2023-03-22T04:14:53;64362.19;;;10.41;100.00
41636;BME280;27623;51.966;4.602;2023-03-22T04:17:22;64358.94;;;10.31;100.00
41636;BME280;27623;51.966;4.602;2023-03-22T04:19:48;64351.13;;;10.28;100.00
41636;BME280;27623;51.966;4.602;2023-03-22T04:22:14;64290.53;;;10.29;100.00
41636;BME280;27623;51.966;4.602;2023-03-22T04:24:43;64308.56;;;10.24;100.00
41636;BME280;27623;51.966;4.602;2023-03-22T04:27:17;64311.66;;;10.25;100.00
41636;BME280;27623;51.966;4.602;2023-03-22T04:29:43;64303.81;;;10.22;100.00
41636;BME280;27623;51.966;4.602;2023-03-22T04:32:19;64320.19;;;10.30;100.00
41636;BME280;27623;51.966;4.602;2023-03-22T04:34:50;64304.00;;;10.25;100.00
41636;BME280;27623;51.966;4.602;2023-03-22T04:37:17;64289.81;;;10.19;100.00
41636;BME280;27623;51.966;4.602;2023-03-22T04:39:44;64351.31;;;10.24;100.00
41636;BME280;27623;51.966;4.602;2023-03-22T04:42:09;64298.56;;;10.20;100.00
41636;BME280;27623;51.966;4.602;2023-03-22T04:44:35;64326.03;;;10.26;100.00
41636;BME280;27623;51.966;4.602;2023-03-22T04:47:01;64321.66;;;10.22;100.00
41636;BME280;27623;51.966;4.602;2023-03-22T04:49:26;64291.09;;;10.15;100.00
41636;BME280;27623;51.966;4.602;2023-03-22T04:51:55;64294.38;;;10.25;100.00
41636;BME280;27623;51.966;4.602;2023-03-22T04:54:21;64289.66;;;10.16;100.00
41636;BME280;27623;51.966;4.602;2023-03-22T04:56:46;64298.00;;;10.12;100.00
41636;BME280;27623;51.966;4.602;2023-03-22T04:59:12;64316.38;;;10.06;100.00
41636;BME280;27623;51.966;4.602;2023-03-22T05:01:37;64299.09;;;10.06;100.00
41636;BME280;27623;51.966;4.602;2023-03-22T05:04:04;64285.28;;;10.12;100.00
41636;BME280;27623;51.966;4.602;2023-03-22T05:06:32;64276.38;;;10.16;100.00
41636;BME280;27623;51.966;4.602;2023-03-22T05:08:59;64338.38;;;10.14;100.00
41636;BME280;27623;51.966;4.602;2023-03-22T05:11:25;64303.66;;;10.13;100.00
41636;BME280;27623;51.966;4.602;2023-03-22T05:13:54;64332.38;;;10.16;100.00
41636;BME280;27623;51.966;4.602;2023-03-22T05:16:20;64301.66;;;10.20;100.00
41636;BME280;27623;51.966;4.602;2023-03-22T05:18:46;64315.28;;;10.12;100.00
41636;BME280;27623;51.966;4.602;2023-03-22T05:21:13;64309.47;;;10.16;100.00
41636;BME280;27623;51.966;4.602;2023-03-22T05:23:43;64311.66;;;10.18;100.00
41636;BME280;27623;51.966;4.602;2023-03-22T05:26:09;64314.00;;;10.22;100.00
41636;BME280;27623;51.966;4.602;2023-03-22T05:28:36;64337.47;;;10.30;100.00
41636;BME280;27623;51.966;4.602;2023-03-22T05:31:02;64295.28;;;10.17;100.00
41636;BME280;27623;51.966;4.602;2023-03-22T05:33:28;64292.91;;;10.26;100.00
41636;BME280;27623;51.966;4.602;2023-03-22T05:35:54;64329.28;;;10.22;100.00
41636;BME280;27623;51.966;4.602;2023-03-22T05:38:20;64292.00;;;10.21;100.00
41636;BME280;27623;51.966;4.602;2023-03-22T05:40:47;64313.28;;;10.12;100.00
41636;BME280;27623;51.966;4.602;2023-03-22T05:43:15;64309.09;;;10.18;100.00
41636;BME280;27623;51.966;4.602;2023-03-22T05:45:40;64307.66;;;10.19;100.00
41636;BME280;27623;51.966;4.602;2023-03-22T05:48:06;64272.00;;;10.19;100.00
41636;BME280;27623;51.966;4.602;2023-03-22T05:50:31;64290.56;;;10.08;100.00
41636;BME280;27623;51.966;4.602;2023-03-22T05:52:57;64316.56;;;10.15;100.00
41636;BME280;27623;51.966;4.602;2023-03-22T05:55:24;64324.19;;;10.22;100.00
41636;BME280;27623;51.966;4.602;2023-03-22T05:57:50;64331.13;;;10.12;100.00
41636;BME280;27623;51.966;4.602;2023-03-22T06:00:20;64297.84;;;10.10;100.00
41636;BME280;27623;51.966;4.602;2023-03-22T06:02:47;64288.19;;;10.03;100.00
41636;BME280;27623;51.966;4.602;2023-03-22T06:05:14;64288.38;;;10.06;100.00
41636;BME280;27623;51.966;4.602;2023-03-22T06:07:40;64290.19;;;10.17;100.00
41636;BME280;27623;51.966;4.602;2023-03-22T06:10:07;64296.72;;;10.23;100.00
41636;BME280;27623;51.966;4.602;2023-03-22T06:12:35;64327.09;;;10.27;100.00
41636;BME280;27623;51.966;4.602;2023-03-22T06:15:01;64319.47;;;10.20;100.00
41636;BME280;27623;51.966;4.602;2023-03-22T06:17:29;64284.00;;;10.16;100.00
41636;BME280;27623;51.966;4.602;2023-03-22T06:19:54;64292.91;;;10.12;100.00
41636;BME280;27623;51.966;4.602;2023-03-22T06:22:20;64334.94;;;10.30;100.00
41636;BME280;27623;51.966;4.602;2023-03-22T06:24:46;64312.00;;;10.30;100.00
41636;BME280;27623;51.966;4.602;2023-03-22T06:27:12;64336.75;;;10.27;100.00
41636;BME280;27623;51.966;4.602;2023-03-22T06:29:37;64332.38;;;10.30;100.00
41636;BME280;27623;51.966;4.602;2023-03-22T06:32:03;64315.47;;;10.21;100.00
41636;BME280;27623;51.966;4.602;2023-03-22T06:34:28;64315.47;;;10.21;100.00
41636;BME280;27623;51.966;4.602;2023-03-22T06:36:54;64311.28;;;10.20;100.00
41636;BME280;27623;51.966;4.602;2023-03-22T06:39:20;64324.03;;;10.20;100.00
41636;BME280;27623;51.966;4.602;2023-03-22T06:41:45;64296.72;;;10.23;100.00
41636;BME280;27623;51.966;4.602;2023-03-22T06:44:11;64280.56;;;10.17;100.00
41636;BME280;27623;51.966;4.602;2023-03-22T06:46:36;64305.09;;;10.19;100.00
41636;BME280;27623;51.966;4.602;2023-03-22T06:49:02;64335.28;;;10.28;100.00
41636;BME280;27623;51.966;4.602;2023-03-22T06:51:28;64296.56;;;10.20;100.00
41636;BME280;27623;51.966;4.602;2023-03-22T06:53:53;64279.47;;;10.23;100.00
41636;BME280;27623;51.966;4.602;2023-03-22T06:56:18;64319.84;;;10.25;100.00
41636;BME280;27623;51.966;4.602;2023-03-22T06:58:44;64330.75;;;10.28;100.00
41636;BME280;27623;51.966;4.602;2023-03-22T07:01:09;64323.66;;;10.29;100.00
41636;BME280;27623;51.966;4.602;2023-03-22T07:03:35;64295.25;;;10.38;100.00
41636;BME280;27623;51.966;4.602;2023-03-22T07:06:06;64290.00;;;10.36;100.00
41636;BME280;27623;51.966;4.602;2023-03-22T07:08:32;64316.75;;;10.32;100.00
41636;BME280;27623;51.966;4.602;2023-03-22T07:10:58;64332.94;;;10.38;100.00
41636;BME280;27623;51.966;4.602;2023-03-22T07:13:23;64361.50;;;10.38;100.00
41636;BME280;27623;51.966;4.602;2023-03-22T07:15:49;64364.19;;;10.48;100.00
41636;BME280;27623;51.966;4.602;2023-03-22T07:18:14;64329.63;;;10.49;100.00
41636;BME280;27623;51.966;4.602;2023-03-22T07:20:39;64347.28;;;10.46;100.00
41636;BME280;27623;51.966;4.602;2023-03-22T07:23:07;64367.84;;;10.49;100.00
41636;BME280;27623;51.966;4.602;2023-03-22T07:25:34;64338.34;;;10.50;100.00
41636;BME280;27623;51.966;4.602;2023-03-22T07:28:00;64366.19;;;10.54;100.00
41636;BME280;27623;51.966;4.602;2023-03-22T07:30:25;64389.13;;;10.54;100.00
41636;BME280;27623;51.966;4.602;2023-03-22T07:32:51;64364.91;;;10.58;100.00
41636;BME280;27623;51.966;4.602;2023-03-22T07:35:16;64370.91;;;10.63;100.00
41636;BME280;27623;51.966;4.602;2023-03-22T07:37:43;64373.81;;;10.68;100.00
41636;BME280;27623;51.966;4.602;2023-03-22T07:40:09;64368.34;;;10.71;100.00
41636;BME280;27623;51.966;4.602;2023-03-22T07:42:35;64364.88;;;10.79;100.00
41636;BME280;27623;51.966;4.602;2023-03-22T07:45:00;64370.91;;;10.71;100.00
41636;BME280;27623;51.966;4.602;2023-03-22T07:47:25;64378.00;;;10.77;100.00
41636;BME280;27623;51.966;4.602;2023-03-22T07:49:51;64416.22;;;10.77;100.00
41636;BME280;27623;51.966;4.602;2023-03-22T07:52:17;64360.72;;;10.71;100.00
41636;BME280;27623;51.966;4.602;2023-03-22T07:54:42;64365.25;;;10.63;100.00
41636;BME280;27623;51.966;4.602;2023-03-22T07:57:10;64339.44;;;10.58;100.00
41636;BME280;27623;51.966;4.602;2023-03-22T07:59:36;64341.25;;;10.55;100.00
41636;BME280;27623;51.966;4.602;2023-03-22T08:02:01;64334.72;;;10.56;100.00
41636;BME280;27623;51.966;4.602;2023-03-22T08:04:26;64334.53;;;10.53;100.00
41636;BME280;27623;51.966;4.602;2023-03-22T08:06:52;64355.06;;;10.63;100.00
41636;BME280;27623;51.966;4.602;2023-03-22T08:09:23;64307.06;;;10.54;100.00
41636;BME280;27623;51.966;4.602;2023-03-22T08:11:49;64357.81;;;10.58;100.00
41636;BME280;27623;51.966;4.602;2023-03-22T08:14:15;64363.25;;;10.71;100.00
41636;BME280;27623;51.966;4.602;2023-03-22T08:16:40;64333.06;;;10.54;100.00
41636;BME280;27623;51.966;4.602;2023-03-22T08:19:08;64368.94;;;10.57;100.00
41636;BME280;27623;51.966;4.602;2023-03-22T08:21:34;64314.53;;;10.44;100.00
41636;BME280;27623;51.966;4.602;2023-03-22T08:23:59;64306.38;;;10.37;100.00
41636;BME280;27623;51.966;4.602;2023-03-22T08:26:25;64333.28;;;10.36;100.00
41636;BME280;27623;51.966;4.602;2023-03-22T08:28:54;64293.09;;;10.22;100.00
41636;BME280;27623;51.966;4.602;2023-03-22T08:31:20;64351.66;;;10.22;100.00
41636;BME280;27623;51.966;4.602;2023-03-22T08:33:49;64310.00;;;10.23;100.00
41636;BME280;27623;51.966;4.602;2023-03-22T08:36:19;64330.75;;;10.21;100.00
41636;BME280;27623;51.966;4.602;2023-03-22T08:38:47;64304.75;;;10.21;100.00
41636;BME280;27623;51.966;4.602;2023-03-22T08:41:15;64295.28;;;10.10;100.00
41636;BME280;27623;51.966;4.602;2023-03-22T08:43:41;64260.94;;;9.92;100.00
41636;BME280;27623;51.966;4.602;2023-03-22T08:46:07;64283.69;;;9.96;100.00
41636;BME280;27623;51.966;4.602;2023-03-22T08:48:34;64280.94;;;9.87;100.00
41636;BME280;27623;51.966;4.602;2023-03-22T08:51:02;64262.41;;;9.84;100.00
41636;BME280;27623;51.966;4.602;2023-03-22T08:53:28;64306.41;;;9.87;100.00
41636;BME280;27623;51.966;4.602;2023-03-22T08:55:54;64284.94;;;9.86;100.00
41636;BME280;27623;51.966;4.602;2023-03-22T08:58:22;64292.94;;;9.98;100.00
41636;BME280;27623;51.966;4.602;2023-03-22T09:00:48;64274.78;;;9.93;100.00
41636;BME280;27623;51.966;4.602;2023-03-22T09:03:13;64240.41;;;9.82;100.00
41636;BME280;27623;51.966;4.602;2023-03-22T09:05:40;64275.31;;;9.86;100.00
41636;BME280;27623;51.966;4.602;2023-03-22T09:08:06;64274.59;;;9.90;100.00
41636;BME280;27623;51.966;4.602;2023-03-22T09:10:31;64271.84;;;9.81;100.00
41636;BME280;27623;51.966;4.602;2023-03-22T09:12:57;64298.94;;;10.04;100.00
41636;BME280;27623;51.966;4.602;2023-03-22T09:15:22;64281.13;;;9.96;100.00
41636;BME280;27623;51.966;4.602;2023-03-22T09:17:48;64262.41;;;9.91;100.00
41636;BME280;27623;51.966;4.602;2023-03-22T09:20:14;64286.56;;;10.02;100.00
41636;BME280;27623;51.966;4.602;2023-03-22T09:22:40;64293.84;;;9.96;100.00
41636;BME280;27623;51.966;4.602;2023-03-22T09:25:06;64299.09;;;9.99;100.00
41636;BME280;27623;51.966;4.602;2023-03-22T09:27:32;64294.59;;;9.92;100.00
41636;BME280;27623;51.966;4.602;2023-03-22T09:30:00;64335.13;;;9.97;100.00
41636;BME280;27623;51.966;4.602;2023-03-22T09:32:25;64296.75;;;10.02;100.00
41636;BME280;27623;51.966;4.602;2023-03-22T09:34:51;64276.59;;;9.97;100.00
41636;BME280;27623;51.966;4.602;2023-03-22T09:37:18;64327.13;;;10.13;100.00
41636;BME280;27623;51.966;4.602;2023-03-22T09:39:44;64320.38;;;10.05;100.00
41636;BME280;27623;51.966;4.602;2023-03-22T09:42:41;64308.94;;;10.01;100.00
41636;BME280;27623;51.966;4.602;2023-03-22T09:45:31;64289.84;;;10.05;100.00
41636;BME280;27623;51.966;4.602;2023-03-22T09:48:05;64327.47;;;10.18;100.00
41636;BME280;27623;51.966;4.602;2023-03-22T09:50:31;64293.47;;;10.06;100.00
41636;BME280;27623;51.966;4.602;2023-03-22T09:52:58;64318.38;;;10.12;100.00
41636;BME280;27623;51.966;4.602;2023-03-22T09:55:38;64332.19;;;10.20;100.00
41636;BME280;27623;51.966;4.602;2023-03-22T09:58:15;64320.75;;;10.10;100.00
41636;BME280;27623;51.966;4.602;2023-03-22T10:05:52;64310.75;;;10.12;100.00
41636;BME280;27623;51.966;4.602;2023-03-22T10:10:51;64296.56;;;10.13;100.00
41636;BME280;27623;51.966;4.602;2023-03-22T10:13:43;64327.84;;;10.16;100.00
41636;BME280;27623;51.966;4.602;2023-03-22T10:16:24;64353.66;;;10.28;100.00
41636;BME280;27623;51.966;4.602;2023-03-22T10:18:51;64337.84;;;10.28;100.00
41636;BME280;27623;51.966;4.602;2023-03-22T10:21:22;64348.75;;;10.24;100.00
41636;BME280;27623;51.966;4.602;2023-03-22T10:23:54;64310.75;;;10.26;100.00
41636;BME280;27623;51.966;4.602;2023-03-22T10:26:32;64340.94;;;10.36;100.00
41636;BME280;27623;51.966;4.602;2023-03-22T10:32:14;64325.28;;;10.23;100.00
41636;BME280;27623;51.966;4.602;2023-03-22T10:34:40;64301.28;;;10.22;100.00
41636;BME280;27623;51.966;4.602;2023-03-22T10:37:12;64326.03;;;10.26;100.00
41636;BME280;27623;51.966;4.602;2023-03-22T10:39:41;64323.47;;;10.26;100.00
41636;BME280;27623;51.966;4.602;2023-03-22T10:42:12;64328.38;;;10.31;100.00
41636;BME280;27623;51.966;4.602;2023-03-22T10:47:18;64323.66;;;10.29;100.00
41636;BME280;27623;51.966;4.602;2023-03-22T10:49:51;64340.22;;;10.32;100.00
41636;BME280;27623;51.966;4.602;2023-03-22T10:52:38;64338.56;;;10.38;100.00
41636;BME280;27623;51.966;4.602;2023-03-22T10:55:10;64333.44;;;10.45;100.00
41636;BME280;27623;51.966;4.602;2023-03-22T10:57:36;64336.56;;;10.39;100.00
41636;BME280;27623;51.966;4.602;2023-03-22T11:00:03;64352.91;;;10.47;100.00
41636;BME280;27623;51.966;4.602;2023-03-22T11:02:32;64347.09;;;10.51;100.00
41636;BME280;27623;51.966;4.602;2023-03-22T11:05:00;64348.69;;;10.66;100.00
41636;BME280;27623;51.966;4.602;2023-03-22T11:07:42;64365.47;;;10.51;100.00
41636;BME280;27623;51.966;4.602;2023-03-22T11:12:41;64414.41;;;10.73;100.00
41636;BME280;27623;51.966;4.602;2023-03-22T11:15:25;64381.63;;;10.78;100.00
41636;BME280;27623;51.966;4.602;2023-03-22T11:17:56;64395.81;;;10.84;100.00
41636;BME280;27623;51.966;4.602;2023-03-22T11:20:22;64396.94;;;10.78;100.00
41636;BME280;27623;51.966;4.602;2023-03-22T11:22:50;64361.06;;;10.76;100.00
41636;BME280;27623;51.966;4.602;2023-03-22T11:25:20;64408.75;;;10.80;100.00
41636;BME280;27623;51.966;4.602;2023-03-22T11:28:08;64411.47;;;10.96;100.00
41636;BME280;27623;51.966;4.602;2023-03-22T11:30:35;64357.59;;;10.77;100.00
41636;BME280;27623;51.966;4.602;2023-03-22T11:35:34;64396.38;;;10.78;100.00
41636;BME280;27623;51.966;4.602;2023-03-22T11:38:03;64352.28;;;10.89;100.00
41636;BME280;27623;51.966;4.602;2023-03-22T11:40:31;64405.81;;;10.89;100.00
41636;BME280;27623;51.966;4.602;2023-03-22T11:43:20;64382.16;;;10.86;100.00
41636;BME280;27623;51.966;4.602;2023-03-22T11:45:49;64418.41;;;10.86;100.00
41636;BME280;27623;51.966;4.602;2023-03-22T11:48:19;64394.91;;;10.86;100.00
41636;BME280;27623;51.966;4.602;2023-03-22T11:50:46;64435.13;;;10.99;100.00
41636;BME280;27623;51.966;4.602;2023-03-22T11:53:15;64386.88;;;10.88;100.00
41636;BME280;27623;51.966;4.602;2023-03-22T11:55:42;64372.31;;;10.84;100.00
41636;BME280;27623;51.966;4.602;2023-03-22T11:58:23;64389.06;;;10.90;100.00
41636;BME280;27623;51.966;4.602;2023-03-22T12:00:51;64400.38;;;10.91;100.00
41636;BME280;27623;51.966;4.602;2023-03-22T12:03:19;64402.38;;;10.90;100.00
41636;BME280;27623;51.966;4.602;2023-03-22T12:05:48;64418.03;;;10.88;100.00
41636;BME280;27623;51.966;4.602;2023-03-22T12:08:39;64407.09;;;10.92;100.00
41636;BME280;27623;51.966;4.602;2023-03-22T12:11:45;64383.25;;;10.94;100.00
41636;BME280;27623;51.966;4.602;2023-03-22T12:16:46;64467.72;;;11.13;100.00
41636;BME280;27623;51.966;4.602;2023-03-22T12:22:00;64418.19;;;11.12;100.00
41636;BME280;27623;51.966;4.602;2023-03-22T12:24:29;64413.28;;;11.00;100.00
41636;BME280;27623;51.966;4.602;2023-03-22T12:29:48;64427.66;;;11.16;100.00
41636;BME280;27623;51.966;4.602;2023-03-22T12:32:25;64416.34;;;11.08;100.00
41636;BME280;27623;51.966;4.602;2023-03-22T12:34:52;64418.00;;;11.10;100.00
41636;BME280;27623;51.966;4.602;2023-03-22T12:37:24;64406.88;;;11.11;100.00
41636;BME280;27623;51.966;4.602;2023-03-22T12:40:21;64463.34;;;11.16;100.00
41636;BME280;27623;51.966;4.602;2023-03-22T12:45:51;64449.88;;;11.20;100.00
41636;BME280;27623;51.966;4.602;2023-03-22T12:48:25;64443.84;;;11.22;100.00
41636;BME280;27623;51.966;4.602;2023-03-22T12:50:56;64420.69;;;11.26;100.00
41636;BME280;27623;51.966;4.602;2023-03-22T12:53:38;64457.84;;;11.25;100.00
41636;BME280;27623;51.966;4.602;2023-03-22T12:56:42;64454.22;;;11.31;100.00
41636;BME280;27623;51.966;4.602;2023-03-22T12:59:17;64468.59;;;11.33;100.00
41636;BME280;27623;51.966;4.602;2023-03-22T13:01:55;64448.53;;;11.45;100.00
41636;BME280;27623;51.966;4.602;2023-03-22T13:10:00;64456.34;;;11.48;100.00
41636;BME280;27623;51.966;4.602;2023-03-22T13:15:38;64483.66;;;11.66;100.00
41636;BME280;27623;51.966;4.602;2023-03-22T13:18:23;64480.03;;;11.58;100.00
41636;BME280;27623;51.966;4.602;2023-03-22T13:23:32;64466.38;;;11.45;100.00
41636;BME280;27623;51.966;4.602;2023-03-22T13:26:00;64479.50;;;11.50;100.00
41636;BME280;27623;51.966;4.602;2023-03-22T13:28:26;64466.19;;;11.50;100.00
41636;BME280;27623;51.966;4.602;2023-03-22T13:30:57;64460.16;;;11.58;100.00
41636;BME280;27623;51.966;4.602;2023-03-22T13:36:23;64466.56;;;11.55;100.00
41636;BME280;27623;51.966;4.602;2023-03-22T13:38:56;64466.56;;;11.55;100.00
41636;BME280;27623;51.966;4.602;2023-03-22T13:41:26;64457.06;;;11.58;100.00
41636;BME280;27623;51.966;4.602;2023-03-22T13:43:57;64471.66;;;11.55;100.00
41636;BME280;27623;51.966;4.602;2023-03-22T13:51:21;64476.75;;;11.55;100.00
41636;BME280;27623;51.966;4.602;2023-03-22T13:59:19;64487.88;;;11.53;100.00
41636;BME280;27623;51.966;4.602;2023-03-22T14:04:31;64500.25;;;11.69;100.00
41636;BME280;27623;51.966;4.602;2023-03-22T14:07:06;64485.31;;;11.60;100.00
41636;BME280;27623;51.966;4.602;2023-03-22T14:09:41;64476.41;;;11.57;100.00
41636;BME280;27623;51.966;4.602;2023-03-22T14:12:47;64490.41;;;11.67;100.00
41636;BME280;27623;51.966;4.602;2023-03-22T14:15:18;64474.75;;;11.55;100.00
41636;BME280;27623;51.966;4.602;2023-03-22T14:20:21;64490.63;;;11.63;100.00
41636;BME280;27623;51.966;4.602;2023-03-22T14:22:56;64468.56;;;11.61;100.00
41636;BME280;27623;51.966;4.602;2023-03-22T14:25:26;64485.69;;;11.58;100.00
41636;BME280;27623;51.966;4.602;2023-03-22T14:27:52;64497.00;;;11.59;100.00
41636;BME280;27623;51.966;4.602;2023-03-22T14:32:50;64474.22;;;11.62;100.00
41636;BME280;27623;51.966;4.602;2023-03-22T14:35:30;64468.00;;;11.61;100.00
41636;BME280;27623;51.966;4.602;2023-03-22T14:38:00;64485.13;;;11.65;100.00
41636;BME280;27623;51.966;4.602;2023-03-22T14:40:32;64494.06;;;11.61;100.00
41636;BME280;27623;51.966;4.602;2023-03-22T14:43:30;64513.38;;;11.67;100.00